createdAt,value
2023-01-30T00:01:00.503Z,77.74
2023-01-30T00:03:37.179Z,77.91
2023-01-30T00:06:14.280Z,77.87
2023-01-30T00:08:50.578Z,77.94
2023-01-30T00:11:28.961Z,77.95
2023-01-30T00:14:05.629Z,78.02
2023-01-30T00:16:43.003Z,77.97
2023-01-30T00:19:19.386Z,77.94
2023-01-30T00:21:55.647Z,77.95
2023-01-30T00:24:32.057Z,77.98
2023-01-30T00:27:08.386Z,78.00
2023-01-30T00:29:57.589Z,77.92
2023-01-30T00:32:39.356Z,77.92
2023-01-30T00:35:15.947Z,78.01
2023-01-30T00:37:52.254Z,77.98
2023-01-30T00:40:30.553Z,77.97
2023-01-30T00:43:24.749Z,77.94
2023-01-30T00:46:19.840Z,77.93
2023-01-30T00:48:56.066Z,77.96
2023-01-30T00:51:32.470Z,77.91
2023-01-30T00:54:09.185Z,77.77
2023-01-30T00:56:45.628Z,77.77
2023-01-30T00:59:22.080Z,77.78
2023-01-30T01:01:58.416Z,77.76
2023-01-30T01:04:43.566Z,77.72
2023-01-30T01:07:21.388Z,77.71
2023-01-30T01:09:59.332Z,77.69
2023-01-30T01:12:35.606Z,77.73
2023-01-30T01:15:14.517Z,77.78
2023-01-30T01:17:51.603Z,77.83
2023-01-30T01:20:28.391Z,77.81
2023-01-30T01:23:05.544Z,77.76
2023-01-30T01:25:42.048Z,77.76
2023-01-30T01:28:21.870Z,77.74
2023-01-30T01:30:58.685Z,77.71
2023-01-30T01:33:36.918Z,77.72
2023-01-30T01:36:29.293Z,77.69
2023-01-30T01:39:10.916Z,77.68
2023-01-30T01:41:47.240Z,77.72
2023-01-30T01:44:25.308Z,77.76
2023-01-30T01:47:03.073Z,77.77
2023-01-30T01:49:41.696Z,77.78
2023-01-30T01:52:20.653Z,77.77
2023-01-30T01:55:02.339Z,77.74
2023-01-30T01:57:46.213Z,77.65
2023-01-30T02:00:26.662Z,77.59
2023-01-30T02:03:11.653Z,77.60
2023-01-30T02:05:56.547Z,77.63
2023-01-30T02:08:39.011Z,77.70
2023-01-30T02:11:27.082Z,77.74
2023-01-30T02:14:05.650Z,77.78
2023-01-30T02:16:44.740Z,77.84
2023-01-30T02:19:36.314Z,77.92
2023-01-30T02:23:14.140Z,77.97
2023-01-30T02:26:58.555Z,78.06
2023-01-30T02:30:25.699Z,78.15
2023-01-30T02:33:23.352Z,78.26
2023-01-30T02:36:16.371Z,78.38
2023-01-30T02:39:07.599Z,78.45
2023-01-30T02:42:02.017Z,78.59
2023-01-30T02:44:53.394Z,78.69
2023-01-30T02:47:40.756Z,78.79
2023-01-30T02:50:24.451Z,78.83
2023-01-30T02:53:01.637Z,78.92
2023-01-30T02:55:41.478Z,78.98
2023-01-30T02:58:22.441Z,78.95
2023-01-30T03:01:58.386Z,78.93
2023-01-30T03:05:03.018Z,78.85
2023-01-30T03:07:56.879Z,78.95
2023-01-30T03:10:44.937Z,79.03
2023-01-30T03:13:36.199Z,79.01
2023-01-30T03:16:18.589Z,79.00
2023-01-30T03:18:55.581Z,79.09
2023-01-30T03:21:31.919Z,79.28
2023-01-30T03:24:09.913Z,79.21
2023-01-30T03:27:09.169Z,79.17
2023-01-30T03:29:46.026Z,79.23
2023-01-30T03:32:22.430Z,79.20
2023-01-30T03:34:59.879Z,79.15
2023-01-30T03:37:37.242Z,79.09
2023-01-30T03:40:18.552Z,79.09
2023-01-30T03:42:55.182Z,79.15
2023-01-30T03:45:31.683Z,79.13
2023-01-30T03:48:09.034Z,79.11
2023-01-30T03:50:45.629Z,79.07
2023-01-30T03:53:21.914Z,79.03
2023-01-30T03:55:58.673Z,79.08
2023-01-30T03:58:37.403Z,79.12
2023-01-30T04:01:25.298Z,79.18
2023-01-30T04:04:01.756Z,79.24
2023-01-30T04:06:38.202Z,79.14
2023-01-30T04:09:14.797Z,79.17
2023-01-30T04:11:54.691Z,79.17
2023-01-30T04:14:31.935Z,79.08
2023-01-30T04:17:26.600Z,79.11
2023-01-30T04:20:22.516Z,79.06
2023-01-30T04:23:02.031Z,79.06
2023-01-30T04:25:40.111Z,79.07
2023-01-30T04:28:18.022Z,79.04
2023-01-30T04:30:55.504Z,79.06
2023-01-30T04:33:51.475Z,79.03
2023-01-30T04:36:29.340Z,79.02
2023-01-30T04:39:06.005Z,79.03
2023-01-30T04:41:42.437Z,79.05
2023-01-30T04:44:18.791Z,79.09
2023-01-30T04:47:35.960Z,79.16
2023-01-30T04:50:14.571Z,79.10
2023-01-30T04:52:50.956Z,79.12
2023-01-30T04:55:27.430Z,79.04
2023-01-30T04:58:04.401Z,79.03
2023-01-30T05:00:40.839Z,79.01
2023-01-30T05:03:18.145Z,78.95
2023-01-30T05:05:54.411Z,78.88
2023-01-30T05:08:30.693Z,78.77
2023-01-30T05:11:07.062Z,78.68
2023-01-30T05:13:44.009Z,78.60
2023-01-30T05:16:22.418Z,78.50
2023-01-30T05:18:58.919Z,78.36
2023-01-30T05:21:35.256Z,78.23
2023-01-30T05:24:12.994Z,78.10
2023-01-30T05:26:49.319Z,77.94
2023-01-30T05:29:26.127Z,77.79
2023-01-30T05:32:02.392Z,77.66
2023-01-30T05:34:38.758Z,77.56
2023-01-30T05:37:15.727Z,77.44
2023-01-30T05:39:52.031Z,77.27
2023-01-30T05:42:28.364Z,77.21
2023-01-30T05:45:05.035Z,77.11
2023-01-30T05:47:41.515Z,76.95
2023-01-30T05:50:20.306Z,76.78
2023-01-30T05:52:56.797Z,76.55
2023-01-30T05:55:33.021Z,76.40
2023-01-30T05:58:09.243Z,76.09
2023-01-30T06:00:45.587Z,75.89
2023-01-30T06:03:22.479Z,75.71
2023-01-30T06:05:59.328Z,75.50
2023-01-30T06:08:36.201Z,75.27
2023-01-30T06:11:16.957Z,75.10
2023-01-30T06:13:53.439Z,74.98
2023-01-30T06:16:30.228Z,74.88
2023-01-30T06:19:06.577Z,74.70
2023-01-30T06:21:42.874Z,74.39
2023-01-30T06:24:19.711Z,74.27
2023-01-30T06:26:56.193Z,74.16
2023-01-30T06:29:32.406Z,74.12
2023-01-30T06:32:09.774Z,74.05
2023-01-30T06:34:46.104Z,73.94
2023-01-30T06:37:22.415Z,73.92
2023-01-30T06:39:58.670Z,73.83
2023-01-30T06:42:35.060Z,73.77
2023-01-30T06:45:14.797Z,73.74
2023-01-30T06:47:56.685Z,73.76
2023-01-30T06:50:32.367Z,73.62
2023-01-30T06:53:12.233Z,73.70
2023-01-30T06:55:48.622Z,73.62
2023-01-30T06:58:24.972Z,73.64
2023-01-30T07:01:02.197Z,73.62
2023-01-30T07:03:38.654Z,73.68
2023-01-30T07:06:15.148Z,73.56
2023-01-30T07:08:51.581Z,73.62
2023-01-30T07:11:28.001Z,73.62
2023-01-30T07:14:05.710Z,73.62
2023-01-30T07:16:42.716Z,73.53
2023-01-30T07:19:19.222Z,73.54
2023-01-30T07:21:55.606Z,73.46
2023-01-30T07:24:31.932Z,73.45
2023-01-30T07:27:09.389Z,73.45
2023-01-30T07:29:45.856Z,73.48
2023-01-30T07:32:23.709Z,73.50
2023-01-30T07:34:59.954Z,73.39
2023-01-30T07:37:36.337Z,73.16
2023-01-30T07:40:16.708Z,73.06
2023-01-30T07:43:04.961Z,73.06
2023-01-30T07:45:45.428Z,73.22
2023-01-30T07:48:23.349Z,73.13
2023-01-30T07:51:01.283Z,73.18
2023-01-30T07:53:37.551Z,73.03
2023-01-30T07:56:18.802Z,72.87
2023-01-30T07:58:57.467Z,72.63
2023-01-30T08:01:34.005Z,72.50
2023-01-30T08:04:10.389Z,72.19
2023-01-30T08:06:47.017Z,72.13
2023-01-30T08:09:23.607Z,71.95
2023-01-30T08:11:59.972Z,71.87
2023-01-30T08:14:36.430Z,71.69
2023-01-30T08:17:12.744Z,71.37
2023-01-30T08:19:49.277Z,71.12
2023-01-30T08:22:25.535Z,70.80
2023-01-30T08:25:01.917Z,70.57
2023-01-30T08:27:38.233Z,70.41
2023-01-30T08:30:18.096Z,70.01
2023-01-30T08:32:54.487Z,69.44
2023-01-30T08:35:31.118Z,69.22
2023-01-30T08:38:10.220Z,68.65
2023-01-30T08:40:46.629Z,69.06
2023-01-30T08:43:23.026Z,68.84
2023-01-30T08:46:00.920Z,68.50
2023-01-30T08:48:49.124Z,67.95
2023-01-30T08:51:26.038Z,67.80
2023-01-30T08:54:02.842Z,67.76
2023-01-30T08:56:39.173Z,67.69
2023-01-30T08:59:15.839Z,67.61
2023-01-30T09:01:52.346Z,67.56
2023-01-30T09:04:30.319Z,67.42
2023-01-30T09:07:06.617Z,67.18
2023-01-30T09:09:42.985Z,66.90
2023-01-30T09:12:19.418Z,66.56
2023-01-30T09:14:55.990Z,66.44
2023-01-30T09:17:32.352Z,66.31
2023-01-30T09:20:12.275Z,66.00
2023-01-30T09:22:49.504Z,65.81
2023-01-30T09:25:26.189Z,65.56
2023-01-30T09:28:02.387Z,65.17
2023-01-30T09:30:38.885Z,64.84
2023-01-30T09:33:20.416Z,64.93
2023-01-30T09:35:57.463Z,65.10
2023-01-30T09:38:33.931Z,64.98
2023-01-30T09:41:47.552Z,64.76
2023-01-30T09:45:12.148Z,64.96
2023-01-30T09:48:05.217Z,65.34
2023-01-30T09:51:16.514Z,65.47
2023-01-30T09:54:20.413Z,65.52
2023-01-30T09:57:20.833Z,65.63
2023-01-30T10:00:08.543Z,65.83
2023-01-30T10:03:04.738Z,65.87
2023-01-30T10:05:48.717Z,66.15
2023-01-30T10:08:50.109Z,66.34
2023-01-30T10:11:48.055Z,66.58
2023-01-30T10:14:56.943Z,66.73
2023-01-30T10:17:59.804Z,66.84
2023-01-30T10:20:53.814Z,67.02
2023-01-30T10:24:33.356Z,67.05
2023-01-30T10:27:18.526Z,67.14
2023-01-30T10:29:59.224Z,67.27
2023-01-30T10:32:44.666Z,67.17
2023-01-30T10:35:28.268Z,67.18
2023-01-30T10:38:14.319Z,67.04
2023-01-30T10:40:59.502Z,66.96
2023-01-30T10:43:45.792Z,66.80
2023-01-30T10:46:55.858Z,66.65
2023-01-30T10:49:45.337Z,66.72
2023-01-30T10:52:43.866Z,66.70
2023-01-30T10:55:41.363Z,66.89
2023-01-30T10:58:33.175Z,67.15
2023-01-30T11:01:18.414Z,67.28
2023-01-30T11:04:03.358Z,67.50
2023-01-30T11:06:39.872Z,67.76
2023-01-30T11:09:17.187Z,67.93
2023-01-30T11:11:57.710Z,68.05
2023-01-30T11:14:53.337Z,68.29
2023-01-30T11:17:39.997Z,68.56
2023-01-30T11:20:24.510Z,68.83
2023-01-30T11:23:26.642Z,69.06
2023-01-30T11:26:10.931Z,69.41
2023-01-30T11:28:49.214Z,70.00
2023-01-30T11:31:41.270Z,70.37
2023-01-30T11:34:24.316Z,70.59
2023-01-30T11:37:26.797Z,70.90
2023-01-30T11:40:21.737Z,71.23
2023-01-30T11:43:12.425Z,71.51
2023-01-30T11:45:53.481Z,71.70
2023-01-30T11:49:01.907Z,71.84
2023-01-30T11:51:36.650Z,72.02
2023-01-30T11:54:21.343Z,71.84
2023-01-30T11:57:02.952Z,71.81
2023-01-30T11:59:45.001Z,71.77
2023-01-30T12:02:30.524Z,71.75
2023-01-30T12:05:31.130Z,71.80
2023-01-30T12:08:41.176Z,71.88
2023-01-30T12:11:46.110Z,72.19
2023-01-30T12:14:44.985Z,72.37
2023-01-30T12:17:29.180Z,72.69
2023-01-30T12:20:19.160Z,72.97
2023-01-30T12:23:11.641Z,73.28
2023-01-30T12:26:05.040Z,73.59
2023-01-30T12:28:55.198Z,73.81
2023-01-30T12:31:38.146Z,74.16
2023-01-30T12:34:15.618Z,74.40
2023-01-30T12:37:06.765Z,74.53
2023-01-30T12:40:03.895Z,74.88
2023-01-30T12:43:09.797Z,75.15
2023-01-30T12:46:04.121Z,75.28
2023-01-30T12:49:11.357Z,75.44
2023-01-30T12:52:18.474Z,75.73
2023-01-30T12:55:11.004Z,75.83
2023-01-30T12:57:59.023Z,76.05
2023-01-30T13:01:01.553Z,76.04
2023-01-30T13:03:51.926Z,76.14
2023-01-30T13:06:58.225Z,76.15
2023-01-30T13:10:10.116Z,76.21
2023-01-30T13:12:58.184Z,76.28
2023-01-30T13:15:50.287Z,76.38
2023-01-30T13:18:37.464Z,76.48
2023-01-30T13:21:24.755Z,76.63
2023-01-30T13:24:23.277Z,76.77
2023-01-30T13:27:08.157Z,76.98
2023-01-30T13:29:47.012Z,77.17
2023-01-30T13:32:41.693Z,77.34
2023-01-30T13:35:25.802Z,77.46
2023-01-30T13:38:05.654Z,77.67
2023-01-30T13:40:49.128Z,77.79
2023-01-30T13:43:35.401Z,77.98
2023-01-30T13:46:20.518Z,78.18
2023-01-30T13:49:19.198Z,78.35
2023-01-30T13:52:04.212Z,78.42
2023-01-30T13:55:08.402Z,78.56
2023-01-30T13:58:03.473Z,78.70
2023-01-30T14:00:40.912Z,78.90
2023-01-30T14:03:31.950Z,78.99
2023-01-30T14:06:38.970Z,79.24
2023-01-30T14:09:34.043Z,79.40
2023-01-30T14:12:21.532Z,79.54
2023-01-30T14:15:25.763Z,79.66
2023-01-30T14:18:23.557Z,79.74
2023-01-30T14:21:20.184Z,79.90
2023-01-30T14:24:05.156Z,80.19
2023-01-30T14:27:32.127Z,80.59
2023-01-30T14:30:47.884Z,80.74
2023-01-30T14:33:52.926Z,80.89
2023-01-30T14:36:50.822Z,80.99
2023-01-30T14:39:53.447Z,81.03
2023-01-30T14:42:32.649Z,81.11
2023-01-30T14:45:39.386Z,81.26
2023-01-30T14:48:36.836Z,81.25
2023-01-30T14:51:34.750Z,81.34
2023-01-30T14:54:36.705Z,81.41
2023-01-30T14:57:32.786Z,81.39
2023-01-30T15:00:24.991Z,81.43
2023-01-30T15:03:03.609Z,81.53
2023-01-30T15:05:47.031Z,81.40
2023-01-30T15:08:27.997Z,81.46
2023-01-30T15:11:28.371Z,81.39
2023-01-30T15:14:19.214Z,81.33
2023-01-30T15:17:33.237Z,81.25
2023-01-30T15:20:46.755Z,81.19
2023-01-30T15:24:01.492Z,81.20
2023-01-30T15:26:56.220Z,81.21
2023-01-30T15:30:28.773Z,81.23
2023-01-30T15:33:29.283Z,81.15
2023-01-30T15:36:25.491Z,81.08
2023-01-30T15:39:17.723Z,81.06
2023-01-30T15:41:58.256Z,81.00
2023-01-30T15:45:05.215Z,81.03
2023-01-30T15:48:11.494Z,80.99
2023-01-30T15:50:57.240Z,80.96
2023-01-30T15:53:41.393Z,80.86
2023-01-30T15:56:25.901Z,80.79
2023-01-30T15:59:04.497Z,80.76
2023-01-30T16:01:41.025Z,80.76
2023-01-30T16:04:32.561Z,80.73
2023-01-30T16:07:27.776Z,80.76
2023-01-30T16:10:07.778Z,80.73
2023-01-30T16:12:45.070Z,80.74
2023-01-30T16:15:31.529Z,80.77
2023-01-30T16:18:25.686Z,80.78
2023-01-30T16:21:06.163Z,80.75
2023-01-30T16:23:56.162Z,80.78
2023-01-30T16:26:33.931Z,80.83
2023-01-30T16:29:19.180Z,80.91
2023-01-30T16:31:57.368Z,80.95
2023-01-30T16:34:40.053Z,81.01
2023-01-30T16:37:32.766Z,81.08
2023-01-30T16:40:27.935Z,81.17
2023-01-30T16:43:18.250Z,81.19
2023-01-30T16:47:00.457Z,81.22
2023-01-30T16:49:52.889Z,81.24
2023-01-30T16:52:37.090Z,81.35
2023-01-30T16:55:24.463Z,81.38
2023-01-30T16:58:04.604Z,81.39
2023-01-30T17:00:45.228Z,81.42
2023-01-30T17:03:31.828Z,81.42
2023-01-30T17:06:21.212Z,81.46
2023-01-30T17:08:59.309Z,81.49
2023-01-30T17:11:41.597Z,81.53
2023-01-30T17:14:31.384Z,81.54
2023-01-30T17:17:10.481Z,81.53
2023-01-30T17:19:49.779Z,81.56
2023-01-30T17:22:27.354Z,81.55
2023-01-30T17:25:12.514Z,81.52
2023-01-30T17:27:49.511Z,81.54
2023-01-30T17:30:26.809Z,81.53
2023-01-30T17:33:03.221Z,81.52
2023-01-30T17:35:40.638Z,81.47
2023-01-30T17:38:17.325Z,81.43
2023-01-30T17:40:53.856Z,81.39
2023-01-30T17:43:30.768Z,81.36
2023-01-30T17:46:07.384Z,81.29
2023-01-30T17:48:44.505Z,81.19
2023-01-30T17:51:20.897Z,81.12
2023-01-30T17:53:57.452Z,81.09
2023-01-30T17:56:39.363Z,81.07
2023-01-30T17:59:19.102Z,80.91
2023-01-30T18:01:56.911Z,80.71
2023-01-30T18:04:33.564Z,80.61
2023-01-30T18:07:16.602Z,80.59
2023-01-30T18:09:52.905Z,80.56
2023-01-30T18:12:29.419Z,80.52
2023-01-30T18:15:06.473Z,80.49
2023-01-30T18:17:48.397Z,80.49
2023-01-30T18:20:24.085Z,80.51
2023-01-30T18:23:01.006Z,80.53
2023-01-30T18:25:37.386Z,80.55
2023-01-30T18:28:15.924Z,80.54
2023-01-30T18:30:52.221Z,80.55
2023-01-30T18:33:29.618Z,80.54
2023-01-30T18:36:10.496Z,80.55
2023-01-30T18:38:47.351Z,80.55
2023-01-30T18:41:26.425Z,80.62
2023-01-30T18:44:05.919Z,80.60
2023-01-30T18:46:42.473Z,80.58
2023-01-30T18:49:19.224Z,80.54
2023-01-30T18:51:56.567Z,80.51
2023-01-30T18:54:33.066Z,80.51
2023-01-30T18:57:09.400Z,80.55
2023-01-30T18:59:45.647Z,80.59
2023-01-30T19:02:22.226Z,80.65
2023-01-30T19:04:58.657Z,80.72
2023-01-30T19:07:36.109Z,80.75
2023-01-30T19:10:17.865Z,80.83
2023-01-30T19:13:12.507Z,80.87
2023-01-30T19:15:48.998Z,80.98
2023-01-30T19:18:26.953Z,81.02
2023-01-30T19:21:06.800Z,81.06
2023-01-30T19:23:43.248Z,81.08
2023-01-30T19:26:21.652Z,81.07
2023-01-30T19:28:59.013Z,81.07
2023-01-30T19:31:35.658Z,81.08
2023-01-30T19:34:14.389Z,81.09
2023-01-30T19:36:50.749Z,81.12
2023-01-30T19:39:27.331Z,81.14
2023-01-30T19:42:03.778Z,81.13
2023-01-30T19:44:41.239Z,81.11
2023-01-30T19:47:21.942Z,81.10
2023-01-30T19:49:58.337Z,81.09
2023-01-30T19:52:34.837Z,81.10
2023-01-30T19:55:12.896Z,81.08
2023-01-30T19:57:49.764Z,81.08
2023-01-30T20:00:27.409Z,81.07
2023-01-30T20:03:04.048Z,81.04
2023-01-30T20:05:40.584Z,81.02
2023-01-30T20:08:31.571Z,81.03
2023-01-30T20:11:11.856Z,81.04
2023-01-30T20:13:51.421Z,81.04
2023-01-30T20:16:31.473Z,80.99
2023-01-30T20:19:13.357Z,80.95
2023-01-30T20:21:50.004Z,80.91
2023-01-30T20:24:26.379Z,80.91
2023-01-30T20:27:04.600Z,80.87
2023-01-30T20:29:41.039Z,80.86
2023-01-30T20:32:17.578Z,80.84
2023-01-30T20:34:54.224Z,80.83
2023-01-30T20:37:30.549Z,80.80
2023-01-30T20:40:08.450Z,80.78
2023-01-30T20:42:44.877Z,80.76
2023-01-30T20:45:21.328Z,80.75
2023-01-30T20:47:57.784Z,80.79
2023-01-30T20:50:34.700Z,80.82
2023-01-30T20:53:12.098Z,80.92
2023-01-30T20:55:49.576Z,80.98
2023-01-30T20:58:26.187Z,81.06
2023-01-30T21:01:12.860Z,81.18
2023-01-30T21:03:52.498Z,81.32
2023-01-30T21:06:42.414Z,81.46
2023-01-30T21:09:24.585Z,81.70
2023-01-30T21:12:01.998Z,81.84
2023-01-30T21:14:39.421Z,82.00
2023-01-30T21:17:15.852Z,82.14
2023-01-30T21:19:52.315Z,82.28
2023-01-30T21:22:28.685Z,82.39
2023-01-30T21:25:05.592Z,82.53
2023-01-30T21:27:43.870Z,82.89
2023-01-30T21:30:20.979Z,83.14
2023-01-30T21:32:58.970Z,83.28
2023-01-30T21:35:36.648Z,83.43
2023-01-30T21:38:32.155Z,83.54
2023-01-30T21:41:27.591Z,83.61
2023-01-30T21:44:04.123Z,83.71
2023-01-30T21:46:45.453Z,83.93
2023-01-30T21:49:25.267Z,84.12
2023-01-30T21:52:01.739Z,84.23
2023-01-30T21:54:39.054Z,84.35
2023-01-30T21:57:15.483Z,84.51
2023-01-30T21:59:51.843Z,84.63
2023-01-30T22:02:28.276Z,84.77
2023-01-30T22:05:05.389Z,84.83
2023-01-30T22:07:41.773Z,84.96
2023-01-30T22:10:19.506Z,85.00
2023-01-30T22:12:55.897Z,85.08
2023-01-30T22:15:33.949Z,85.17
2023-01-30T22:18:10.475Z,85.29
2023-01-30T22:20:46.728Z,85.43
2023-01-30T22:23:23.036Z,85.54
2023-01-30T22:26:01.852Z,85.68
2023-01-30T22:28:38.557Z,85.75
2023-01-30T22:31:18.392Z,85.81
2023-01-30T22:33:57.201Z,85.94
2023-01-30T22:36:36.135Z,85.96
2023-01-30T22:39:12.728Z,86.04
2023-01-30T22:41:49.052Z,86.06
2023-01-30T22:44:25.718Z,86.13
2023-01-30T22:47:02.252Z,86.22
2023-01-30T22:49:38.764Z,86.25
2023-01-30T22:52:15.737Z,86.29
2023-01-30T22:54:52.056Z,86.31
2023-01-30T22:57:28.475Z,86.40
2023-01-30T23:00:05.708Z,86.42
2023-01-30T23:02:42.330Z,86.47
2023-01-30T23:05:19.286Z,86.51
2023-01-30T23:07:55.878Z,86.57
2023-01-30T23:10:32.247Z,86.54
2023-01-30T23:13:08.712Z,86.58
2023-01-30T23:15:46.897Z,86.61
2023-01-30T23:18:40.899Z,86.64
2023-01-30T23:21:18.597Z,86.66
2023-01-30T23:23:57.757Z,86.70
2023-01-30T23:26:40.328Z,86.64
2023-01-30T23:29:21.534Z,86.74
2023-01-30T23:31:57.924Z,86.70
2023-01-30T23:34:34.574Z,86.71
2023-01-30T23:37:10.781Z,86.74
2023-01-30T23:39:47.806Z,86.79
2023-01-30T23:42:24.062Z,86.81
2023-01-30T23:45:00.363Z,86.80
2023-01-30T23:47:36.884Z,86.77
2023-01-30T23:50:15.462Z,86.80
2023-01-30T23:52:51.670Z,86.84
2023-01-30T23:55:28.017Z,86.83
2023-01-30T23:58:04.605Z,86.82
